Terminal Aerodrome Forecast
Issued by NWS

Home | Current Version | Previous Version | Text Only | Print | Product List | Glossary On
Versions: 1 2 3 4 5 6 7 8 9 10 11 12 13 14 15 16 17 18 19 20
741
FTUS43 KIND 211737
TAFHUF
TAF
KHUF 211737Z 2118/2218 16005KT P6SM VCSH OVC090
     FM220000 17004KT 6SM BR BKN045
     FM220100 VRB03KT 5SM BR BKN050
     FM220600 18004KT 4SM BR BKN015
     FM220800 VRB03KT 3SM BR BKN008
     FM221000 VRB03KT 1 1/2SM BR BKN008
     FM221400 VRB03KT 2SM BR SCT003
     FM221700 19005KT 6SM BR SCT015=

USA.gov is the U.S. government's official web portal to all federal, state and local government web resources and services.